Blanket, Texas
Current Conditions -  °F | °C
As of 12:15 AM on Wednesday 26 Nov 2014 (Local Time) from KBWD Reporting Station
Clear Clear  
Wind Chill: 37°   Ceiling: Unl
Heat Index: 37°   Visibility: 10mi
Dew Point: 28°   Wind: 3mph
Humidity: 70%   Direction: 160°SSE
Pressure: 30.14"   Gusts: NA
Location:  31.82°N, 98.79°W
Report Text: KBWD 260615Z AUTO 16003KT 10SM CLR 03/M02 A3014 RMK AO2
Loading
Personal Weather Stations






























Interactive Weather Map New forecast layout! Learn more

10-Day Weather Forecast

Advertisements
Track Severe Weather on mobile